createdAt,value
2019-02-21T00:01:36.703Z,8.50
2019-02-21T00:04:05.961Z,8.50
2019-02-21T00:06:35.832Z,8.50
2019-02-21T00:09:07.271Z,8.50
2019-02-21T00:11:37.526Z,8.50
2019-02-21T00:14:14.817Z,8.50
2019-02-21T00:16:44.894Z,8.50
2019-02-21T00:19:14.975Z,8.50
2019-02-21T00:21:45.414Z,8.50
2019-02-21T00:24:15.573Z,8.50
2019-02-21T00:26:46.151Z,8.50
2019-02-21T00:29:16.906Z,8.50
2019-02-21T00:31:47.182Z,8.40
2019-02-21T00:34:17.179Z,8.40
2019-02-21T00:36:47.638Z,8.50
2019-02-21T00:39:17.687Z,8.50
2019-02-21T00:41:47.696Z,8.50
2019-02-21T00:44:24.021Z,8.50
2019-02-21T00:46:57.019Z,8.50
2019-02-21T00:49:27.217Z,8.50
2019-02-21T00:51:57.227Z,8.50
2019-02-21T00:54:27.320Z,8.50
2019-02-21T00:56:58.049Z,8.40
2019-02-21T00:59:28.062Z,8.40
2019-02-21T01:01:57.919Z,8.40
2019-02-21T01:04:28.256Z,8.50
2019-02-21T01:06:58.326Z,8.50
2019-02-21T01:09:28.412Z,8.50
2019-02-21T01:11:58.556Z,8.50
2019-02-21T01:14:28.493Z,8.40
2019-02-21T01:16:58.437Z,8.50
2019-02-21T01:19:28.459Z,8.50
2019-02-21T01:21:58.682Z,8.50
2019-02-21T01:24:32.611Z,8.50
2019-02-21T01:27:02.967Z,8.50
2019-02-21T01:29:33.036Z,8.50
2019-02-21T01:32:06.592Z,8.60
2019-02-21T01:34:36.873Z,8.60
2019-02-21T01:37:10.432Z,8.60
2019-02-21T01:39:40.814Z,8.60
2019-02-21T01:42:10.810Z,8.70
2019-02-21T01:44:41.321Z,8.70
2019-02-21T01:47:11.210Z,8.70
2019-02-21T01:49:42.784Z,8.70
2019-02-21T01:52:12.925Z,8.70
2019-02-21T01:54:43.618Z,8.60
2019-02-21T01:57:14.108Z,8.60
2019-02-21T01:59:44.197Z,8.60
2019-02-21T02:02:14.342Z,8.60
2019-02-21T02:04:44.301Z,8.60
2019-02-21T02:07:15.338Z,8.60
2019-02-21T02:09:45.729Z,8.60
2019-02-21T02:12:17.629Z,8.60
2019-02-21T02:14:53.251Z,8.60
2019-02-21T02:17:23.617Z,8.60
2019-02-21T02:19:54.610Z,8.60
2019-02-21T02:22:27.042Z,8.60
2019-02-21T02:25:14.217Z,8.70
2019-02-21T02:27:47.274Z,8.60
2019-02-21T02:30:18.964Z,8.60
2019-02-21T02:32:49.357Z,8.60
2019-02-21T02:35:19.545Z,8.60
2019-02-21T02:37:49.686Z,8.70
2019-02-21T02:40:19.867Z,8.70
2019-02-21T02:42:49.854Z,8.70
2019-02-21T02:45:20.216Z,8.70
2019-02-21T02:47:51.891Z,8.70
2019-02-21T02:50:30.248Z,8.70
2019-02-21T02:53:00.531Z,8.70
2019-02-21T02:55:30.992Z,8.70
2019-02-21T02:58:06.532Z,8.70
2019-02-21T03:00:36.848Z,8.70
2019-02-21T03:03:06.950Z,8.70
2019-02-21T03:05:37.074Z,8.70
2019-02-21T03:08:10.077Z,8.60
2019-02-21T03:10:40.607Z,8.60
2019-02-21T03:13:12.970Z,8.60
2019-02-21T03:15:44.814Z,8.60
2019-02-21T03:18:14.807Z,8.60
2019-02-21T03:20:44.932Z,8.60
2019-02-21T03:23:15.107Z,8.60
2019-02-21T03:25:52.996Z,8.60
2019-02-21T03:28:23.130Z,8.60
2019-02-21T03:30:53.151Z,8.50
2019-02-21T03:33:23.504Z,8.50
2019-02-21T03:35:56.412Z,8.50
2019-02-21T03:38:36.705Z,8.50
2019-02-21T03:41:09.901Z,8.50
2019-02-21T03:43:40.408Z,8.40
2019-02-21T03:46:10.564Z,8.40
2019-02-21T03:48:41.012Z,8.40
2019-02-21T03:51:21.873Z,8.40
2019-02-21T03:53:54.570Z,8.40
2019-02-21T03:56:25.134Z,8.40
2019-02-21T03:59:00.835Z,8.40
2019-02-21T04:01:31.501Z,8.40
2019-02-21T04:04:03.686Z,8.40
2019-02-21T04:06:38.619Z,8.30
2019-02-21T04:09:09.633Z,8.30
2019-02-21T04:11:41.752Z,8.30
2019-02-21T04:14:14.718Z,8.30
2019-02-21T04:16:47.699Z,8.20
2019-02-21T04:19:17.737Z,8.20
2019-02-21T04:21:51.469Z,8.20
2019-02-21T04:24:25.794Z,8.20
2019-02-21T04:27:02.685Z,8.10
2019-02-21T04:29:34.267Z,8.10
2019-02-21T04:32:16.080Z,8.10
2019-02-21T04:34:36.805Z,8.10
2019-02-21T04:37:07.105Z,8.10
2019-02-21T04:39:39.587Z,8.10
2019-02-21T04:42:09.865Z,8.10
2019-02-21T04:44:39.914Z,8.10
2019-02-21T04:47:12.228Z,8.10
2019-02-21T04:49:42.863Z,8.10
2019-02-21T04:52:13.445Z,8.10
2019-02-21T04:54:47.692Z,8.00
2019-02-21T04:57:21.912Z,8.00
2019-02-21T04:59:53.330Z,8.00
2019-02-21T05:02:29.307Z,8.00
2019-02-21T05:04:56.252Z,8.00
2019-02-21T05:07:26.429Z,7.90
2019-02-21T05:10:09.350Z,7.90
2019-02-21T05:12:41.405Z,7.90
2019-02-21T05:15:14.121Z,7.90
2019-02-21T05:17:49.305Z,7.90
2019-02-21T05:20:37.632Z,7.80
2019-02-21T05:23:10.580Z,7.70
2019-02-21T05:25:41.183Z,7.70
2019-02-21T05:28:32.178Z,7.70
2019-02-21T05:31:25.585Z,7.80
2019-02-21T05:34:03.864Z,7.80
2019-02-21T05:37:03.979Z,7.80
2019-02-21T05:39:48.138Z,7.80
2019-02-21T05:42:35.979Z,7.90
2019-02-21T05:45:28.250Z,7.90
2019-02-21T05:48:12.647Z,7.90
2019-02-21T05:50:50.196Z,7.90
2019-02-21T05:53:45.609Z,7.90
2019-02-21T05:56:24.160Z,7.90
2019-02-21T05:59:16.219Z,7.90
2019-02-21T06:02:09.863Z,7.90
2019-02-21T06:04:57.919Z,7.90
2019-02-21T06:07:45.572Z,7.90
2019-02-21T06:10:43.952Z,7.90
2019-02-21T06:13:35.750Z,7.90
2019-02-21T06:16:15.445Z,7.90
2019-02-21T06:18:53.770Z,8.00
2019-02-21T06:21:30.097Z,7.90
2019-02-21T06:24:13.289Z,7.90
2019-02-21T06:26:53.741Z,7.90
2019-02-21T06:29:30.645Z,7.80
2019-02-21T06:32:00.832Z,7.80
2019-02-21T06:34:31.827Z,7.80
2019-02-21T06:37:02.044Z,7.80
2019-02-21T06:39:32.214Z,7.70
2019-02-21T06:42:02.511Z,7.70
2019-02-21T06:44:32.545Z,7.60
2019-02-21T06:47:03.002Z,7.60
2019-02-21T06:49:33.208Z,7.60
2019-02-21T06:52:03.224Z,7.60
2019-02-21T06:54:33.254Z,7.70
2019-02-21T06:57:03.227Z,7.70
2019-02-21T06:59:42.230Z,7.70
2019-02-21T07:02:04.949Z,7.80
2019-02-21T07:04:35.229Z,7.80
2019-02-21T07:07:05.404Z,7.80
2019-02-21T07:09:35.743Z,7.80
2019-02-21T07:12:05.999Z,7.80
2019-02-21T07:14:36.260Z,7.80
2019-02-21T07:17:09.151Z,7.80
2019-02-21T07:19:41.085Z,7.90
2019-02-21T07:22:17.777Z,7.90
2019-02-21T07:24:46.074Z,7.90
2019-02-21T07:27:16.146Z,7.90
2019-02-21T07:29:46.554Z,8.00
2019-02-21T07:32:16.685Z,8.10
2019-02-21T07:34:47.235Z,8.20
2019-02-21T07:37:21.044Z,8.30
2019-02-21T07:39:51.658Z,8.40
2019-02-21T07:42:27.332Z,8.50
2019-02-21T07:44:59.645Z,8.40
2019-02-21T07:47:31.690Z,8.40
2019-02-21T07:50:02.900Z,8.40
2019-02-21T07:52:35.658Z,8.30
2019-02-21T07:55:10.531Z,8.30
2019-02-21T07:57:40.896Z,8.30
2019-02-21T08:00:13.591Z,8.30
2019-02-21T08:02:44.260Z,8.30
2019-02-21T08:05:14.671Z,8.20
2019-02-21T08:07:45.768Z,8.30
2019-02-21T08:10:15.826Z,8.30
2019-02-21T08:12:54.018Z,8.40
2019-02-21T08:15:24.103Z,8.40
2019-02-21T08:17:56.573Z,8.50
2019-02-21T08:20:40.858Z,8.40
2019-02-21T08:23:11.081Z,8.30
2019-02-21T08:25:40.107Z,8.30
2019-02-21T08:28:14.797Z,8.30
2019-02-21T08:30:44.805Z,8.20
2019-02-21T08:33:34.217Z,8.20
2019-02-21T08:36:04.337Z,8.20
2019-02-21T08:38:34.843Z,8.20
2019-02-21T08:41:07.474Z,8.20
2019-02-21T08:43:39.351Z,8.20
2019-02-21T08:46:09.385Z,8.20
2019-02-21T08:48:40.569Z,8.30
2019-02-21T08:51:10.836Z,8.40
2019-02-21T08:53:44.156Z,8.50
2019-02-21T08:56:14.532Z,8.50
2019-02-21T08:58:44.586Z,8.40
2019-02-21T09:01:14.742Z,8.40
2019-02-21T09:03:45.243Z,8.40
2019-02-21T09:06:15.607Z,8.50
2019-02-21T09:08:46.454Z,8.60
2019-02-21T09:11:19.399Z,8.50
2019-02-21T09:13:48.520Z,8.50
2019-02-21T09:16:21.817Z,8.50
2019-02-21T09:18:52.082Z,8.50
2019-02-21T09:21:22.187Z,8.60
2019-02-21T09:23:52.514Z,8.80
2019-02-21T09:26:22.640Z,9.00
2019-02-21T09:28:52.889Z,9.20
2019-02-21T09:31:23.262Z,9.40
2019-02-21T09:33:53.379Z,9.60
2019-02-21T09:36:23.616Z,9.50
2019-02-21T09:38:53.811Z,9.40
2019-02-21T09:41:24.057Z,9.30
2019-02-21T09:43:54.055Z,9.20
2019-02-21T09:46:24.406Z,9.30
2019-02-21T09:48:55.049Z,9.50
2019-02-21T09:51:25.199Z,9.70
2019-02-21T09:53:56.888Z,9.80
2019-02-21T09:56:30.465Z,9.70
2019-02-21T09:58:59.062Z,9.50
2019-02-21T10:01:33.140Z,9.80
2019-02-21T10:04:06.690Z,10.00
2019-02-21T10:06:38.305Z,10.10
2019-02-21T10:09:08.493Z,10.00
2019-02-21T10:11:39.259Z,9.90
2019-02-21T10:14:09.636Z,9.90
2019-02-21T10:16:39.830Z,10.00
2019-02-21T10:19:12.255Z,10.00
2019-02-21T10:21:42.429Z,10.00
2019-02-21T10:24:12.434Z,10.00
2019-02-21T10:26:42.568Z,10.10
2019-02-21T10:29:14.224Z,10.20
2019-02-21T10:31:44.343Z,10.10
2019-02-21T10:34:16.079Z,10.20
2019-02-21T10:36:46.333Z,10.10
2019-02-21T10:39:18.250Z,10.10
2019-02-21T10:41:49.452Z,10.10
2019-02-21T10:44:19.567Z,10.10
2019-02-21T10:46:49.665Z,10.20
2019-02-21T10:49:20.433Z,10.20
2019-02-21T10:51:50.646Z,10.10
2019-02-21T10:54:20.738Z,10.10
2019-02-21T10:56:51.003Z,10.10
2019-02-21T10:59:21.006Z,10.20
2019-02-21T11:01:52.789Z,10.10
2019-02-21T11:04:25.652Z,10.10
2019-02-21T11:06:55.942Z,10.00
2019-02-21T11:09:26.499Z,9.90
2019-02-21T11:11:56.647Z,9.90
2019-02-21T11:14:29.320Z,10.00
2019-02-21T11:16:59.509Z,10.00
2019-02-21T11:19:30.281Z,10.00
2019-02-21T11:22:00.413Z,10.10
2019-02-21T11:24:30.426Z,10.00
2019-02-21T11:27:00.859Z,10.10
2019-02-21T11:29:31.255Z,10.20
2019-02-21T11:32:01.390Z,10.20
2019-02-21T11:34:31.387Z,10.20
2019-02-21T11:37:01.523Z,10.30
2019-02-21T11:39:31.596Z,10.30
2019-02-21T11:42:03.102Z,10.30
2019-02-21T11:44:33.697Z,10.20
2019-02-21T11:47:04.097Z,10.10
2019-02-21T11:49:34.630Z,10.00
2019-02-21T11:52:10.270Z,10.00
2019-02-21T11:54:37.114Z,10.10
2019-02-21T11:57:07.327Z,10.10
2019-02-21T11:59:37.782Z,10.00
2019-02-21T12:02:10.107Z,10.00
2019-02-21T12:04:40.536Z,10.10
2019-02-21T12:07:11.958Z,10.10
2019-02-21T12:09:42.086Z,10.10
2019-02-21T12:12:12.230Z,10.00
2019-02-21T12:14:42.294Z,9.90
2019-02-21T12:17:12.973Z,9.90
2019-02-21T12:19:43.655Z,9.90
2019-02-21T12:22:14.075Z,9.90
2019-02-21T12:24:44.411Z,9.90
2019-02-21T12:27:14.801Z,9.90
2019-02-21T12:29:45.572Z,9.90
2019-02-21T12:32:15.862Z,9.90
2019-02-21T12:34:45.880Z,9.90
2019-02-21T12:37:15.961Z,10.00
2019-02-21T12:39:45.938Z,10.10
2019-02-21T12:42:15.882Z,10.10
2019-02-21T12:44:47.856Z,10.10
2019-02-21T12:47:17.909Z,10.00
2019-02-21T12:49:48.127Z,10.00
2019-02-21T12:52:20.648Z,10.00
2019-02-21T12:54:51.863Z,10.00
2019-02-21T12:57:22.212Z,10.00
2019-02-21T12:59:52.357Z,10.10
2019-02-21T13:02:22.857Z,10.10
2019-02-21T13:04:57.397Z,10.20
2019-02-21T13:07:27.480Z,10.30
2019-02-21T13:09:57.600Z,10.30
2019-02-21T13:12:27.972Z,10.50
2019-02-21T13:14:58.132Z,10.60
2019-02-21T13:17:28.177Z,10.60
2019-02-21T13:19:58.423Z,10.70
2019-02-21T13:22:29.545Z,10.60
2019-02-21T13:24:59.663Z,10.50
2019-02-21T13:27:35.282Z,10.40
2019-02-21T13:30:09.322Z,10.40
2019-02-21T13:32:39.290Z,10.30
2019-02-21T13:35:09.546Z,10.40
2019-02-21T13:37:44.995Z,10.40
2019-02-21T13:40:15.245Z,10.30
2019-02-21T13:42:45.621Z,10.30
2019-02-21T13:45:17.562Z,10.20
2019-02-21T13:47:47.709Z,10.10
2019-02-21T13:50:18.128Z,10.10
2019-02-21T13:52:50.871Z,10.10
2019-02-21T13:55:21.447Z,10.00
2019-02-21T13:57:51.791Z,10.10
2019-02-21T14:00:22.233Z,10.20
2019-02-21T14:02:52.530Z,10.30
2019-02-21T14:05:22.574Z,10.40
2019-02-21T14:07:52.637Z,10.40
2019-02-21T14:10:22.854Z,10.40
2019-02-21T14:12:52.930Z,10.30
2019-02-21T14:15:24.178Z,10.20
2019-02-21T14:17:55.486Z,10.10
2019-02-21T14:20:26.068Z,10.20
2019-02-21T14:22:56.319Z,10.20
2019-02-21T14:25:28.360Z,10.20
2019-02-21T14:27:58.170Z,10.10
2019-02-21T14:30:28.591Z,10.00
2019-02-21T14:32:58.839Z,9.90
2019-02-21T14:35:29.249Z,9.90
2019-02-21T14:37:59.378Z,9.80
2019-02-21T14:40:29.792Z,9.80
2019-02-21T14:43:01.530Z,9.70
2019-02-21T14:45:31.733Z,9.60
2019-02-21T14:48:02.058Z,9.60
2019-02-21T14:50:32.006Z,9.70
2019-02-21T14:53:05.421Z,9.70
2019-02-21T14:55:37.316Z,9.80
2019-02-21T14:58:07.383Z,9.80
2019-02-21T15:00:42.026Z,9.70
2019-02-21T15:03:21.427Z,9.70
2019-02-21T15:05:44.761Z,9.70
2019-02-21T15:08:21.793Z,9.60
2019-02-21T15:10:52.718Z,9.60
2019-02-21T15:13:25.399Z,9.60
2019-02-21T15:15:58.978Z,9.50
2019-02-21T15:18:37.825Z,9.50
2019-02-21T15:21:08.313Z,9.40
2019-02-21T15:23:38.487Z,9.40
2019-02-21T15:26:08.514Z,9.30
2019-02-21T15:28:38.444Z,9.30
2019-02-21T15:31:08.650Z,9.30
2019-02-21T15:33:42.324Z,9.20
2019-02-21T15:36:12.415Z,9.20
2019-02-21T15:38:42.688Z,9.20
2019-02-21T15:41:12.888Z,9.20
2019-02-21T15:43:43.213Z,9.20
2019-02-21T15:46:13.548Z,9.20
2019-02-21T15:48:44.750Z,9.20
2019-02-21T15:51:16.188Z,9.20
2019-02-21T15:53:54.486Z,9.20
2019-02-21T15:56:25.287Z,9.20
2019-02-21T15:58:55.499Z,9.10
2019-02-21T16:01:25.746Z,9.10
2019-02-21T16:03:59.001Z,9.00
2019-02-21T16:06:29.281Z,9.10
2019-02-21T16:09:03.094Z,9.00
2019-02-21T16:11:33.194Z,9.00
2019-02-21T16:14:13.561Z,9.00
2019-02-21T16:16:44.032Z,9.00
2019-02-21T16:19:14.344Z,9.00
2019-02-21T16:21:47.203Z,8.90
2019-02-21T16:24:17.186Z,8.90
2019-02-21T16:26:47.490Z,8.90
2019-02-21T16:29:17.720Z,8.90
2019-02-21T16:31:48.118Z,8.80
2019-02-21T16:34:18.239Z,8.80
2019-02-21T16:36:49.447Z,8.80
2019-02-21T16:39:19.336Z,8.80
2019-02-21T16:41:49.500Z,8.80
2019-02-21T16:44:19.658Z,8.80
2019-02-21T16:46:50.082Z,8.70
2019-02-21T16:49:20.061Z,8.70
2019-02-21T16:51:53.836Z,8.70
2019-02-21T16:54:23.910Z,8.70
2019-02-21T16:56:54.069Z,8.70
2019-02-21T16:59:24.293Z,8.60
2019-02-21T17:01:54.278Z,8.60
2019-02-21T17:04:24.952Z,8.60
2019-02-21T17:06:54.921Z,8.60
2019-02-21T17:09:25.116Z,8.60
2019-02-21T17:11:55.535Z,8.60
2019-02-21T17:14:25.757Z,8.60
2019-02-21T17:16:56.226Z,8.50
2019-02-21T17:19:26.308Z,8.50
2019-02-21T17:21:58.341Z,8.60
2019-02-21T17:24:31.685Z,8.60
2019-02-21T17:27:02.010Z,8.60
2019-02-21T17:29:32.510Z,8.60
2019-02-21T17:32:02.778Z,8.60
2019-02-21T17:34:33.081Z,8.60
2019-02-21T17:37:06.253Z,8.60
2019-02-21T17:39:36.451Z,8.60
2019-02-21T17:42:06.497Z,8.60
2019-02-21T17:44:36.973Z,8.60
2019-02-21T17:47:07.012Z,8.60
2019-02-21T17:49:37.257Z,8.60
2019-02-21T17:52:07.802Z,8.60
2019-02-21T17:54:39.904Z,8.60
2019-02-21T17:57:10.079Z,8.60
2019-02-21T18:00:04.125Z,8.60
2019-02-21T18:02:34.260Z,8.60
2019-02-21T18:05:05.249Z,8.60
2019-02-21T18:07:36.671Z,8.60
2019-02-21T18:10:18.942Z,8.60
2019-02-21T18:12:51.153Z,8.70
2019-02-21T18:15:25.031Z,8.70
2019-02-21T18:17:55.259Z,8.70
2019-02-21T18:20:26.826Z,8.70
2019-02-21T18:22:56.965Z,8.70
2019-02-21T18:25:40.300Z,8.60
2019-02-21T18:28:13.278Z,8.60
2019-02-21T18:30:46.420Z,8.60
2019-02-21T18:33:16.510Z,8.60
2019-02-21T18:35:46.751Z,8.60
2019-02-21T18:38:17.069Z,8.60
2019-02-21T18:40:48.659Z,8.60
2019-02-21T18:43:18.983Z,8.50
2019-02-21T18:45:49.104Z,8.50
2019-02-21T18:48:19.269Z,8.40
2019-02-21T18:53:42.693Z,8.40
2019-02-21T18:56:46.724Z,8.30
2019-02-21T18:59:31.747Z,8.30
2019-02-21T19:01:50.258Z,8.20
2019-02-21T19:04:26.417Z,8.20
2019-02-21T19:09:42.814Z,8.20
2019-02-21T19:12:28.943Z,8.20
2019-02-21T19:15:14.680Z,8.30
2019-02-21T19:18:14.233Z,8.30
2019-02-21T19:21:32.782Z,8.30
2019-02-21T19:24:29.934Z,8.20
2019-02-21T19:30:18.371Z,8.20
2019-02-21T19:32:58.847Z,8.20
2019-02-21T19:36:56.361Z,8.20
2019-02-21T19:39:15.668Z,8.20
2019-02-21T19:42:03.538Z,8.20
2019-02-21T19:45:06.384Z,8.20
2019-02-21T19:47:59.753Z,8.20
2019-02-21T19:53:39.771Z,8.20
2019-02-21T19:56:16.322Z,8.20
2019-02-21T19:59:09.823Z,8.20
2019-02-21T20:02:01.084Z,8.20
2019-02-21T20:07:37.434Z,8.20
2019-02-21T20:10:18.199Z,8.20
2019-02-21T20:13:31.607Z,8.20
2019-02-21T20:16:54.100Z,8.20
2019-02-21T20:21:27.769Z,8.10
2019-02-21T20:23:13.935Z,8.10
2019-02-21T20:25:11.117Z,8.10
2019-02-21T20:27:50.876Z,8.10
2019-02-21T20:30:48.328Z,8.10
2019-02-21T20:34:19.123Z,8.00
2019-02-21T20:36:31.642Z,8.00
2019-02-21T20:39:35.658Z,8.00
2019-02-21T20:45:21.463Z,8.00
2019-02-21T20:48:30.756Z,8.00
2019-02-21T20:51:16.895Z,8.00
2019-02-21T20:53:57.618Z,8.00
2019-02-21T20:57:22.057Z,8.00
2019-02-21T21:02:02.506Z,7.90
2019-02-21T21:04:50.277Z,7.90
2019-02-21T21:10:37.781Z,7.80
2019-02-21T21:21:50.331Z,7.70
2019-02-21T21:24:18.686Z,7.70
2019-02-21T21:27:17.087Z,7.70
2019-02-21T21:29:58.902Z,7.70
2019-02-21T21:33:54.694Z,7.70
2019-02-21T21:36:23.973Z,7.70
2019-02-21T21:50:40.695Z,7.70
2019-02-21T22:21:47.989Z,7.60
2019-02-21T22:28:18.534Z,7.50
2019-02-21T22:30:59.487Z,7.50
2019-02-21T22:33:40.254Z,7.50
2019-02-21T22:36:25.102Z,7.40
2019-02-21T22:38:56.971Z,7.40
2019-02-21T22:41:28.143Z,7.40
2019-02-21T22:44:05.654Z,7.40
2019-02-21T22:46:45.277Z,7.40
2019-02-21T22:49:46.017Z,7.40
2019-02-21T22:55:27.664Z,7.30
2019-02-21T22:58:44.705Z,7.30
2019-02-21T23:01:45.913Z,7.30
2019-02-21T23:05:25.415Z,7.30
2019-02-21T23:12:01.280Z,7.30
2019-02-21T23:14:38.026Z,7.30
2019-02-21T23:17:10.179Z,7.30
2019-02-21T23:19:40.472Z,7.30
2019-02-21T23:22:12.147Z,7.30
2019-02-21T23:24:42.130Z,7.30
2019-02-21T23:27:12.152Z,7.30
2019-02-21T23:29:43.061Z,7.30
2019-02-21T23:32:14.641Z,7.30
2019-02-21T23:34:46.542Z,7.30
2019-02-21T23:37:16.689Z,7.30
2019-02-21T23:39:46.663Z,7.20
2019-02-21T23:42:20.150Z,7.30
2019-02-21T23:44:50.194Z,7.30
2019-02-21T23:47:21.548Z,7.30
2019-02-21T23:49:51.787Z,7.20
2019-02-21T23:52:21.982Z,7.20
2019-02-21T23:54:52.352Z,7.20
2019-02-21T23:57:23.158Z,7.20
